ホノルル の空港の天気 - METARとTAF

ホノルル国際空港 ( PHNL / HNL ) - アメリカ ハワイ州ホノルル
飛行場実況気象(Metar)
観測時間09/27 13:53 HST (09/27 23:53 UTC)
風向・風速東北東 7m/s
視程10km以上
天気現象
少しの雲 雲底高度 730m
気温31.1℃
湿度45%
気圧1015.1hPa
METARPHNL 272353Z 07014KT 10SM FEW024 31/18 A2998 RMK AO2 SLP151 T03110178 10317 20272 58017
過去の天気等 Google飛行場航空写真 Wunderground天気予報

過去48時間のMETAR

飛行場予報(TAF)
発表時間: 9/27 13:36 HST (9/27 23:36 UTC)
予報対象時間: 27日14時 HST ~ 28日20時 HST
風向・風速東北東 7m/s 瞬間風速 10m/s
視程10km以上
全天の4割程度の雲 雲底高度 760m
全天の4割程度の雲 雲底高度 1370m
27日20時 HST から
風向・風速北東 4m/s
視程10km以上
少しの雲 雲底高度 760m
少しの雲 雲底高度 1370m
28日10時 HST から
風向・風速東北東 6m/s 瞬間風速 9m/s
視程10km以上
少しの雲 雲底高度 760m
全天の4割程度の雲 雲底高度 1370m
28日19時 HST から
風向・風速北東 4m/s
視程10km以上
少しの雲 雲底高度 760m
少しの雲 雲底高度 1370m
PHNL 272336Z 2800/2906 07013G19KT P6SM SCT025 SCT045
FM280600 04007KT P6SM FEW025 FEW045
FM282000 06012G18KT P6SM FEW025 SCT045
FM290500 05008KT P6SM FEW025 FEW045